sensor_id;sensor_type;location;lat;lon;timestamp;temperature;humidity
69901;DHT22;57183;50.930;5.406;2022-12-10T00:01:42;-1.00;99.90
69901;DHT22;57183;50.930;5.406;2022-12-10T00:04:08;-1.00;99.90
69901;DHT22;57183;50.930;5.406;2022-12-10T00:06:36;-0.90;99.90
69901;DHT22;57183;50.930;5.406;2022-12-10T00:09:03;-0.70;99.90
69901;DHT22;57183;50.930;5.406;2022-12-10T00:11:30;-0.50;99.90
69901;DHT22;57183;50.930;5.406;2022-12-10T00:13:56;-0.30;99.90
69901;DHT22;57183;50.930;5.406;2022-12-10T00:16:24;-0.40;99.90
69901;DHT22;57183;50.930;5.406;2022-12-10T00:18:51;-0.50;99.90
69901;DHT22;57183;50.930;5.406;2022-12-10T00:21:20;-0.70;99.90
69901;DHT22;57183;50.930;5.406;2022-12-10T00:23:46;-0.40;99.90
69901;DHT22;57183;50.930;5.406;2022-12-10T00:26:22;-0.30;99.90
69901;DHT22;57183;50.930;5.406;2022-12-10T00:28:49;-0.50;99.90
69901;DHT22;57183;50.930;5.406;2022-12-10T00:31:36;-0.70;99.90
69901;DHT22;57183;50.930;5.406;2022-12-10T00:34:04;-0.80;99.90
69901;DHT22;57183;50.930;5.406;2022-12-10T00:36:37;-0.40;99.90
69901;DHT22;57183;50.930;5.406;2022-12-10T00:39:03;0.00;99.90
69901;DHT22;57183;50.930;5.406;2022-12-10T00:41:30;0.40;99.90
69901;DHT22;57183;50.930;5.406;2022-12-10T00:43:55;0.60;99.90
69901;DHT22;57183;50.930;5.406;2022-12-10T00:46:21;0.70;99.90
69901;DHT22;57183;50.930;5.406;2022-12-10T00:48:47;0.90;99.90
69901;DHT22;57183;50.930;5.406;2022-12-10T00:51:22;1.00;99.90
69901;DHT22;57183;50.930;5.406;2022-12-10T00:53:50;0.80;99.90
69901;DHT22;57183;50.930;5.406;2022-12-10T00:56:19;0.40;99.90
69901;DHT22;57183;50.930;5.406;2022-12-10T00:58:47;0.30;99.90
69901;DHT22;57183;50.930;5.406;2022-12-10T01:03:53;0.70;99.90
69901;DHT22;57183;50.930;5.406;2022-12-10T01:06:25;1.00;99.90
69901;DHT22;57183;50.930;5.406;2022-12-10T01:08:52;0.60;99.90
69901;DHT22;57183;50.930;5.406;2022-12-10T01:11:19;0.30;99.90
69901;DHT22;57183;50.930;5.406;2022-12-10T01:13:47;0.30;99.90
69901;DHT22;57183;50.930;5.406;2022-12-10T01:16:14;0.40;99.90
69901;DHT22;57183;50.930;5.406;2022-12-10T01:18:41;0.40;99.90
69901;DHT22;57183;50.930;5.406;2022-12-10T01:21:09;0.70;99.90
69901;DHT22;57183;50.930;5.406;2022-12-10T01:23:37;1.10;99.90
69901;DHT22;57183;50.930;5.406;2022-12-10T01:26:05;1.10;99.90
69901;DHT22;57183;50.930;5.406;2022-12-10T01:28:33;0.90;99.90
69901;DHT22;57183;50.930;5.406;2022-12-10T01:31:13;0.80;99.90
69901;DHT22;57183;50.930;5.406;2022-12-10T01:33:39;0.60;99.90
69901;DHT22;57183;50.930;5.406;2022-12-10T01:36:08;0.80;99.90
69901;DHT22;57183;50.930;5.406;2022-12-10T01:38:35;0.80;99.90
69901;DHT22;57183;50.930;5.406;2022-12-10T01:41:01;0.90;99.90
69901;DHT22;57183;50.930;5.406;2022-12-10T01:43:27;1.00;99.90
69901;DHT22;57183;50.930;5.406;2022-12-10T01:45:53;1.10;99.90
69901;DHT22;57183;50.930;5.406;2022-12-10T01:48:19;1.00;99.90
69901;DHT22;57183;50.930;5.406;2022-12-10T01:50:45;0.80;99.90
69901;DHT22;57183;50.930;5.406;2022-12-10T01:53:12;0.90;99.90
69901;DHT22;57183;50.930;5.406;2022-12-10T01:55:49;1.20;99.90
69901;DHT22;57183;50.930;5.406;2022-12-10T01:58:17;1.70;99.90
69901;DHT22;57183;50.930;5.406;2022-12-10T02:01:05;1.90;99.90
69901;DHT22;57183;50.930;5.406;2022-12-10T02:06:30;2.10;99.90
69901;DHT22;57183;50.930;5.406;2022-12-10T02:09:15;2.10;99.90
69901;DHT22;57183;50.930;5.406;2022-12-10T02:11:48;2.20;99.90
69901;DHT22;57183;50.930;5.406;2022-12-10T02:14:22;2.20;99.90
69901;DHT22;57183;50.930;5.406;2022-12-10T02:16:56;2.30;99.90
69901;DHT22;57183;50.930;5.406;2022-12-10T02:19:28;2.10;99.90
69901;DHT22;57183;50.930;5.406;2022-12-10T02:22:00;2.00;99.90
69901;DHT22;57183;50.930;5.406;2022-12-10T02:24:30;2.10;99.90
69901;DHT22;57183;50.930;5.406;2022-12-10T02:29:32;2.10;99.90
69901;DHT22;57183;50.930;5.406;2022-12-10T02:32:09;2.30;99.90
69901;DHT22;57183;50.930;5.406;2022-12-10T02:34:43;2.30;99.90
69901;DHT22;57183;50.930;5.406;2022-12-10T02:37:32;2.20;99.90
69901;DHT22;57183;50.930;5.406;2022-12-10T02:40:03;2.20;99.90
69901;DHT22;57183;50.930;5.406;2022-12-10T02:42:30;2.10;99.90
69901;DHT22;57183;50.930;5.406;2022-12-10T02:44:57;2.10;99.90
69901;DHT22;57183;50.930;5.406;2022-12-10T02:47:24;2.20;99.90
69901;DHT22;57183;50.930;5.406;2022-12-10T02:49:53;2.10;99.90
69901;DHT22;57183;50.930;5.406;2022-12-10T02:52:20;2.20;99.90
69901;DHT22;57183;50.930;5.406;2022-12-10T02:54:48;2.20;99.90
69901;DHT22;57183;50.930;5.406;2022-12-10T03:07:51;2.10;99.90
69901;DHT22;57183;50.930;5.406;2022-12-10T03:13:06;2.10;99.90
69901;DHT22;57183;50.930;5.406;2022-12-10T03:15:35;2.00;99.90
69901;DHT22;57183;50.930;5.406;2022-12-10T03:18:03;2.00;99.90
69901;DHT22;57183;50.930;5.406;2022-12-10T03:20:31;2.00;99.90
69901;DHT22;57183;50.930;5.406;2022-12-10T03:22:58;1.80;99.90
69901;DHT22;57183;50.930;5.406;2022-12-10T03:25:27;1.90;99.90
69901;DHT22;57183;50.930;5.406;2022-12-10T03:27:56;1.90;99.90
69901;DHT22;57183;50.930;5.406;2022-12-10T03:30:23;2.00;99.90
69901;DHT22;57183;50.930;5.406;2022-12-10T03:32:49;1.90;99.90
69901;DHT22;57183;50.930;5.406;2022-12-10T03:35:16;1.80;99.90
69901;DHT22;57183;50.930;5.406;2022-12-10T03:37:42;1.70;99.90
69901;DHT22;57183;50.930;5.406;2022-12-10T03:40:10;1.70;99.90
69901;DHT22;57183;50.930;5.406;2022-12-10T03:42:37;1.60;99.90
69901;DHT22;57183;50.930;5.406;2022-12-10T03:45:04;1.80;99.90
69901;DHT22;57183;50.930;5.406;2022-12-10T03:47:30;1.60;99.90
69901;DHT22;57183;50.930;5.406;2022-12-10T03:49:56;1.70;99.90
69901;DHT22;57183;50.930;5.406;2022-12-10T03:52:21;2.00;99.90
69901;DHT22;57183;50.930;5.406;2022-12-10T03:54:47;2.00;99.90
69901;DHT22;57183;50.930;5.406;2022-12-10T03:57:13;2.00;99.90
69901;DHT22;57183;50.930;5.406;2022-12-10T03:59:38;1.90;99.90
69901;DHT22;57183;50.930;5.406;2022-12-10T04:02:04;2.00;99.90
69901;DHT22;57183;50.930;5.406;2022-12-10T04:04:30;1.90;99.90
69901;DHT22;57183;50.930;5.406;2022-12-10T04:06:56;1.80;99.90
69901;DHT22;57183;50.930;5.406;2022-12-10T04:09:22;1.90;99.90
69901;DHT22;57183;50.930;5.406;2022-12-10T04:11:48;1.80;99.90
69901;DHT22;57183;50.930;5.406;2022-12-10T04:14:13;1.80;99.90
69901;DHT22;57183;50.930;5.406;2022-12-10T04:16:58;1.70;99.90
69901;DHT22;57183;50.930;5.406;2022-12-10T04:19:24;1.60;99.90
69901;DHT22;57183;50.930;5.406;2022-12-10T04:21:50;1.60;99.90
69901;DHT22;57183;50.930;5.406;2022-12-10T04:24:36;1.70;99.90
69901;DHT22;57183;50.930;5.406;2022-12-10T04:27:24;2.00;99.90
69901;DHT22;57183;50.930;5.406;2022-12-10T04:29:52;2.10;99.90
69901;DHT22;57183;50.930;5.406;2022-12-10T04:32:18;2.00;99.90
69901;DHT22;57183;50.930;5.406;2022-12-10T04:34:44;2.00;99.90
69901;DHT22;57183;50.930;5.406;2022-12-10T04:37:11;2.10;99.90
69901;DHT22;57183;50.930;5.406;2022-12-10T04:39:37;2.00;99.90
69901;DHT22;57183;50.930;5.406;2022-12-10T04:42:16;1.90;99.90
69901;DHT22;57183;50.930;5.406;2022-12-10T04:44:42;2.00;99.90
69901;DHT22;57183;50.930;5.406;2022-12-10T04:47:09;1.80;99.90
69901;DHT22;57183;50.930;5.406;2022-12-10T04:49:35;1.90;99.90
69901;DHT22;57183;50.930;5.406;2022-12-10T04:52:01;1.90;99.90
69901;DHT22;57183;50.930;5.406;2022-12-10T04:54:28;2.00;99.90
69901;DHT22;57183;50.930;5.406;2022-12-10T04:56:54;2.00;99.90
69901;DHT22;57183;50.930;5.406;2022-12-10T04:59:20;2.10;99.90
69901;DHT22;57183;50.930;5.406;2022-12-10T05:01:46;2.00;99.90
69901;DHT22;57183;50.930;5.406;2022-12-10T05:04:14;2.00;99.90
69901;DHT22;57183;50.930;5.406;2022-12-10T05:06:43;2.20;99.90
69901;DHT22;57183;50.930;5.406;2022-12-10T05:09:13;2.10;99.90
69901;DHT22;57183;50.930;5.406;2022-12-10T05:11:41;2.00;99.90
69901;DHT22;57183;50.930;5.406;2022-12-10T05:14:11;2.00;99.90
69901;DHT22;57183;50.930;5.406;2022-12-10T05:16:36;1.90;99.90
69901;DHT22;57183;50.930;5.406;2022-12-10T05:19:02;1.90;99.90
69901;DHT22;57183;50.930;5.406;2022-12-10T05:21:28;1.90;99.90
69901;DHT22;57183;50.930;5.406;2022-12-10T05:24:15;2.00;99.90
69901;DHT22;57183;50.930;5.406;2022-12-10T05:26:41;2.00;99.90
69901;DHT22;57183;50.930;5.406;2022-12-10T05:29:07;1.90;99.90
69901;DHT22;57183;50.930;5.406;2022-12-10T05:31:33;1.90;99.90
69901;DHT22;57183;50.930;5.406;2022-12-10T05:33:59;1.80;99.90
69901;DHT22;57183;50.930;5.406;2022-12-10T05:36:30;1.80;99.90
69901;DHT22;57183;50.930;5.406;2022-12-10T05:38:56;1.90;99.90
69901;DHT22;57183;50.930;5.406;2022-12-10T05:41:25;2.00;99.90
69901;DHT22;57183;50.930;5.406;2022-12-10T05:43:54;2.00;99.90
69901;DHT22;57183;50.930;5.406;2022-12-10T05:46:22;2.30;99.90
69901;DHT22;57183;50.930;5.406;2022-12-10T05:48:49;2.20;99.90
69901;DHT22;57183;50.930;5.406;2022-12-10T05:51:17;2.20;99.90
69901;DHT22;57183;50.930;5.406;2022-12-10T05:53:44;2.20;99.90
69901;DHT22;57183;50.930;5.406;2022-12-10T05:56:12;2.30;99.90
69901;DHT22;57183;50.930;5.406;2022-12-10T05:58:39;2.40;99.90
69901;DHT22;57183;50.930;5.406;2022-12-10T06:01:07;2.30;99.90
69901;DHT22;57183;50.930;5.406;2022-12-10T06:03:33;2.30;99.90
69901;DHT22;57183;50.930;5.406;2022-12-10T06:05:59;2.30;99.90
69901;DHT22;57183;50.930;5.406;2022-12-10T06:08:24;2.30;99.90
69901;DHT22;57183;50.930;5.406;2022-12-10T06:10:50;2.20;99.90
69901;DHT22;57183;50.930;5.406;2022-12-10T06:13:16;2.40;99.90
69901;DHT22;57183;50.930;5.406;2022-12-10T06:15:42;2.10;99.90
69901;DHT22;57183;50.930;5.406;2022-12-10T06:18:08;2.20;99.90
69901;DHT22;57183;50.930;5.406;2022-12-10T06:20:37;2.00;99.90
69901;DHT22;57183;50.930;5.406;2022-12-10T06:23:03;1.80;99.90
69901;DHT22;57183;50.930;5.406;2022-12-10T06:25:29;1.80;99.90
69901;DHT22;57183;50.930;5.406;2022-12-10T06:27:54;1.90;99.90
69901;DHT22;57183;50.930;5.406;2022-12-10T06:30:20;1.90;99.90
69901;DHT22;57183;50.930;5.406;2022-12-10T06:32:48;2.00;99.90
69901;DHT22;57183;50.930;5.406;2022-12-10T06:35:14;2.10;99.90
69901;DHT22;57183;50.930;5.406;2022-12-10T06:37:39;2.20;99.90
69901;DHT22;57183;50.930;5.406;2022-12-10T06:40:05;2.20;99.90
69901;DHT22;57183;50.930;5.406;2022-12-10T06:42:31;2.20;99.90
69901;DHT22;57183;50.930;5.406;2022-12-10T06:44:57;2.20;99.90
69901;DHT22;57183;50.930;5.406;2022-12-10T06:47:23;2.20;99.90
69901;DHT22;57183;50.930;5.406;2022-12-10T06:49:49;2.40;99.90
69901;DHT22;57183;50.930;5.406;2022-12-10T06:52:22;2.40;99.90
69901;DHT22;57183;50.930;5.406;2022-12-10T06:54:48;2.30;99.90
69901;DHT22;57183;50.930;5.406;2022-12-10T06:57:14;2.30;99.90
69901;DHT22;57183;50.930;5.406;2022-12-10T06:59:39;2.20;99.90
69901;DHT22;57183;50.930;5.406;2022-12-10T07:02:05;2.30;99.90
69901;DHT22;57183;50.930;5.406;2022-12-10T07:04:31;2.20;99.90
69901;DHT22;57183;50.930;5.406;2022-12-10T07:06:57;2.00;99.90
69901;DHT22;57183;50.930;5.406;2022-12-10T07:09:22;1.90;99.90
69901;DHT22;57183;50.930;5.406;2022-12-10T07:11:49;1.80;99.90
69901;DHT22;57183;50.930;5.406;2022-12-10T07:14:16;1.70;99.90
69901;DHT22;57183;50.930;5.406;2022-12-10T07:16:42;1.70;99.90
69901;DHT22;57183;50.930;5.406;2022-12-10T07:19:10;2.10;99.90
69901;DHT22;57183;50.930;5.406;2022-12-10T07:21:39;2.10;99.90
69901;DHT22;57183;50.930;5.406;2022-12-10T07:24:18;2.00;99.90
69901;DHT22;57183;50.930;5.406;2022-12-10T07:26:45;2.00;99.90
69901;DHT22;57183;50.930;5.406;2022-12-10T07:29:20;2.10;99.90
69901;DHT22;57183;50.930;5.406;2022-12-10T07:31:47;2.00;99.90
69901;DHT22;57183;50.930;5.406;2022-12-10T07:34:14;2.10;99.90
69901;DHT22;57183;50.930;5.406;2022-12-10T07:36:40;2.10;99.90
69901;DHT22;57183;50.930;5.406;2022-12-10T07:39:08;2.10;99.90
69901;DHT22;57183;50.930;5.406;2022-12-10T07:41:34;2.30;99.90
69901;DHT22;57183;50.930;5.406;2022-12-10T07:44:04;2.30;99.90
69901;DHT22;57183;50.930;5.406;2022-12-10T07:46:32;2.40;99.90
69901;DHT22;57183;50.930;5.406;2022-12-10T07:49:02;2.40;99.90
69901;DHT22;57183;50.930;5.406;2022-12-10T07:51:37;2.40;99.90
69901;DHT22;57183;50.930;5.406;2022-12-10T07:54:03;2.30;99.90
69901;DHT22;57183;50.930;5.406;2022-12-10T07:56:29;2.30;99.90
69901;DHT22;57183;50.930;5.406;2022-12-10T07:58:54;2.30;99.90
69901;DHT22;57183;50.930;5.406;2022-12-10T08:01:22;2.30;99.90
69901;DHT22;57183;50.930;5.406;2022-12-10T08:03:49;2.00;99.90
69901;DHT22;57183;50.930;5.406;2022-12-10T08:06:17;1.80;99.90
69901;DHT22;57183;50.930;5.406;2022-12-10T08:08:44;1.90;99.90
69901;DHT22;57183;50.930;5.406;2022-12-10T08:11:11;1.80;99.90
69901;DHT22;57183;50.930;5.406;2022-12-10T08:13:37;2.00;99.90
69901;DHT22;57183;50.930;5.406;2022-12-10T08:16:10;2.00;99.90
69901;DHT22;57183;50.930;5.406;2022-12-10T08:18:37;1.90;99.90
69901;DHT22;57183;50.930;5.406;2022-12-10T08:21:05;2.10;99.90
69901;DHT22;57183;50.930;5.406;2022-12-10T08:23:31;2.20;99.90
69901;DHT22;57183;50.930;5.406;2022-12-10T08:25:56;2.40;99.90
69901;DHT22;57183;50.930;5.406;2022-12-10T08:28:22;2.30;99.90
69901;DHT22;57183;50.930;5.406;2022-12-10T08:30:48;2.50;99.90
69901;DHT22;57183;50.930;5.406;2022-12-10T08:33:14;2.40;99.90
69901;DHT22;57183;50.930;5.406;2022-12-10T08:35:40;2.30;99.90
69901;DHT22;57183;50.930;5.406;2022-12-10T08:38:06;2.30;99.90
69901;DHT22;57183;50.930;5.406;2022-12-10T08:40:32;2.20;99.90
69901;DHT22;57183;50.930;5.406;2022-12-10T08:42:58;2.30;99.90
69901;DHT22;57183;50.930;5.406;2022-12-10T08:45:23;2.30;99.90
69901;DHT22;57183;50.930;5.406;2022-12-10T08:47:49;2.40;99.90
69901;DHT22;57183;50.930;5.406;2022-12-10T08:50:15;2.40;99.90
69901;DHT22;57183;50.930;5.406;2022-12-10T08:52:40;2.30;99.90
69901;DHT22;57183;50.930;5.406;2022-12-10T08:55:07;2.20;99.90
69901;DHT22;57183;50.930;5.406;2022-12-10T08:57:33;2.30;99.90
69901;DHT22;57183;50.930;5.406;2022-12-10T08:59:58;2.50;99.90
69901;DHT22;57183;50.930;5.406;2022-12-10T09:02:24;2.70;99.90
69901;DHT22;57183;50.930;5.406;2022-12-10T09:04:50;2.50;99.90
69901;DHT22;57183;50.930;5.406;2022-12-10T09:07:16;2.50;99.90
69901;DHT22;57183;50.930;5.406;2022-12-10T09:09:42;2.30;99.90
69901;DHT22;57183;50.930;5.406;2022-12-10T09:12:08;2.10;99.90
69901;DHT22;57183;50.930;5.406;2022-12-10T09:14:33;1.90;99.90
69901;DHT22;57183;50.930;5.406;2022-12-10T09:17:02;1.70;99.90
69901;DHT22;57183;50.930;5.406;2022-12-10T09:19:28;1.80;99.90
69901;DHT22;57183;50.930;5.406;2022-12-10T09:21:53;1.40;99.90
69901;DHT22;57183;50.930;5.406;2022-12-10T09:24:19;1.60;99.90
69901;DHT22;57183;50.930;5.406;2022-12-10T09:26:45;1.80;99.90
69901;DHT22;57183;50.930;5.406;2022-12-10T09:29:12;1.70;99.90
69901;DHT22;57183;50.930;5.406;2022-12-10T09:31:38;2.00;99.90
69901;DHT22;57183;50.930;5.406;2022-12-10T09:34:04;2.20;99.90
69901;DHT22;57183;50.930;5.406;2022-12-10T09:36:30;2.40;99.90
69901;DHT22;57183;50.930;5.406;2022-12-10T09:38:56;2.50;99.90
69901;DHT22;57183;50.930;5.406;2022-12-10T09:47:10;2.50;99.90
69901;DHT22;57183;50.930;5.406;2022-12-10T09:52:26;2.70;99.90
69901;DHT22;57183;50.930;5.406;2022-12-10T09:54:59;2.70;99.90
69901;DHT22;57183;50.930;5.406;2022-12-10T09:57:35;2.70;99.90
69901;DHT22;57183;50.930;5.406;2022-12-10T10:00:25;2.60;99.90
69901;DHT22;57183;50.930;5.406;2022-12-10T10:02:57;2.60;99.90
69901;DHT22;57183;50.930;5.406;2022-12-10T10:05:28;2.70;99.90
69901;DHT22;57183;50.930;5.406;2022-12-10T10:07:58;2.60;99.90
69901;DHT22;57183;50.930;5.406;2022-12-10T10:10:39;2.70;99.90
69901;DHT22;57183;50.930;5.406;2022-12-10T10:15:36;2.80;99.90
69901;DHT22;57183;50.930;5.406;2022-12-10T10:18:35;2.80;99.90
69901;DHT22;57183;50.930;5.406;2022-12-10T10:21:06;2.80;99.90
69901;DHT22;57183;50.930;5.406;2022-12-10T10:23:32;3.00;99.90
69901;DHT22;57183;50.930;5.406;2022-12-10T10:25:58;3.00;99.90
69901;DHT22;57183;50.930;5.406;2022-12-10T10:28:25;3.10;99.90
69901;DHT22;57183;50.930;5.406;2022-12-10T10:30:52;3.10;99.90
69901;DHT22;57183;50.930;5.406;2022-12-10T10:33:19;3.10;99.90
69901;DHT22;57183;50.930;5.406;2022-12-10T10:36:03;3.00;99.90
69901;DHT22;57183;50.930;5.406;2022-12-10T10:38:29;3.00;99.90
69901;DHT22;57183;50.930;5.406;2022-12-10T10:40:59;3.00;99.90
69901;DHT22;57183;50.930;5.406;2022-12-10T10:43:27;2.90;99.90
69901;DHT22;57183;50.930;5.406;2022-12-10T10:46:02;3.00;99.90
69901;DHT22;57183;50.930;5.406;2022-12-10T10:48:30;3.00;99.90
69901;DHT22;57183;50.930;5.406;2022-12-10T10:51:20;2.80;99.90
69901;DHT22;57183;50.930;5.406;2022-12-10T10:53:55;2.90;99.90
69901;DHT22;57183;50.930;5.406;2022-12-10T10:56:22;2.80;99.90
69901;DHT22;57183;50.930;5.406;2022-12-10T10:59:02;2.70;99.90
69901;DHT22;57183;50.930;5.406;2022-12-10T11:01:54;2.80;99.90
69901;DHT22;57183;50.930;5.406;2022-12-10T11:04:44;2.90;99.90
69901;DHT22;57183;50.930;5.406;2022-12-10T11:10:00;3.00;99.90
69901;DHT22;57183;50.930;5.406;2022-12-10T11:12:34;3.10;99.90
69901;DHT22;57183;50.930;5.406;2022-12-10T11:15:01;3.10;99.90
69901;DHT22;57183;50.930;5.406;2022-12-10T11:17:28;3.20;99.90
69901;DHT22;57183;50.930;5.406;2022-12-10T11:19:55;3.20;99.90
69901;DHT22;57183;50.930;5.406;2022-12-10T11:22:26;3.10;99.90
69901;DHT22;57183;50.930;5.406;2022-12-10T11:24:52;3.20;99.90
69901;DHT22;57183;50.930;5.406;2022-12-10T11:27:38;3.20;99.90
69901;DHT22;57183;50.930;5.406;2022-12-10T11:30:12;3.40;99.90
69901;DHT22;57183;50.930;5.406;2022-12-10T11:32:51;3.30;99.90
69901;DHT22;57183;50.930;5.406;2022-12-10T11:38:21;3.30;99.90
69901;DHT22;57183;50.930;5.406;2022-12-10T11:43:41;3.00;99.90
69901;DHT22;57183;50.930;5.406;2022-12-10T11:57:43;3.10;99.90
69901;DHT22;57183;50.930;5.406;2022-12-10T12:00:21;3.10;99.90
69901;DHT22;57183;50.930;5.406;2022-12-10T12:14:24;3.00;99.90
69901;DHT22;57183;50.930;5.406;2022-12-10T12:19:34;2.80;99.90
69901;DHT22;57183;50.930;5.406;2022-12-10T12:22:12;2.90;99.90
69901;DHT22;57183;50.930;5.406;2022-12-10T12:24:41;3.00;99.90
69901;DHT22;57183;50.930;5.406;2022-12-10T12:30:00;3.10;99.90
69901;DHT22;57183;50.930;5.406;2022-12-10T12:32:52;3.10;99.90
69901;DHT22;57183;50.930;5.406;2022-12-10T12:38:14;3.40;99.90
69901;DHT22;57183;50.930;5.406;2022-12-10T12:41:03;3.30;99.90
69901;DHT22;57183;50.930;5.406;2022-12-10T12:46:05;3.30;99.90
69901;DHT22;57183;50.930;5.406;2022-12-10T12:48:41;3.20;99.90
69901;DHT22;57183;50.930;5.406;2022-12-10T12:51:18;3.10;99.90
69901;DHT22;57183;50.930;5.406;2022-12-10T12:53:45;3.10;99.90
69901;DHT22;57183;50.930;5.406;2022-12-10T12:56:40;2.90;99.90
69901;DHT22;57183;50.930;5.406;2022-12-10T12:59:53;2.80;99.90
69901;DHT22;57183;50.930;5.406;2022-12-10T13:02:23;2.30;99.90
69901;DHT22;57183;50.930;5.406;2022-12-10T13:04:57;2.30;99.90
69901;DHT22;57183;50.930;5.406;2022-12-10T13:07:28;2.40;99.90
69901;DHT22;57183;50.930;5.406;2022-12-10T13:12:50;2.60;99.90
69901;DHT22;57183;50.930;5.406;2022-12-10T13:15:22;2.60;99.90
69901;DHT22;57183;50.930;5.406;2022-12-10T13:18:19;2.70;99.90
69901;DHT22;57183;50.930;5.406;2022-12-10T13:23:54;2.80;99.90
69901;DHT22;57183;50.930;5.406;2022-12-10T13:26:28;2.70;99.90
69901;DHT22;57183;50.930;5.406;2022-12-10T13:29:25;2.80;99.90
69901;DHT22;57183;50.930;5.406;2022-12-10T13:32:18;2.80;99.90
69901;DHT22;57183;50.930;5.406;2022-12-10T13:34:45;2.80;99.90
69901;DHT22;57183;50.930;5.406;2022-12-10T13:37:18;2.80;99.90
69901;DHT22;57183;50.930;5.406;2022-12-10T13:42:35;3.00;99.90
69901;DHT22;57183;50.930;5.406;2022-12-10T13:47:48;3.00;99.90
69901;DHT22;57183;50.930;5.406;2022-12-10T13:53:16;3.00;99.90
69901;DHT22;57183;50.930;5.406;2022-12-10T13:56:01;3.00;99.90
69901;DHT22;57183;50.930;5.406;2022-12-10T14:07:03;2.60;99.90
69901;DHT22;57183;50.930;5.406;2022-12-10T14:09:34;2.60;99.90
69901;DHT22;57183;50.930;5.406;2022-12-10T14:12:06;2.40;99.90
69901;DHT22;57183;50.930;5.406;2022-12-10T14:14:40;2.20;99.90
69901;DHT22;57183;50.930;5.406;2022-12-10T14:17:18;2.40;99.90
69901;DHT22;57183;50.930;5.406;2022-12-10T14:19:46;2.40;99.90
69901;DHT22;57183;50.930;5.406;2022-12-10T14:22:20;2.20;99.90
69901;DHT22;57183;50.930;5.406;2022-12-10T14:24:49;2.30;99.90
69901;DHT22;57183;50.930;5.406;2022-12-10T14:27:23;2.40;99.90
69901;DHT22;57183;50.930;5.406;2022-12-10T14:29:52;2.40;99.90
69901;DHT22;57183;50.930;5.406;2022-12-10T14:32:25;2.40;99.90
69901;DHT22;57183;50.930;5.406;2022-12-10T14:34:55;2.30;99.90
69901;DHT22;57183;50.930;5.406;2022-12-10T14:37:26;2.30;99.90
69901;DHT22;57183;50.930;5.406;2022-12-10T14:39:53;2.30;99.90
69901;DHT22;57183;50.930;5.406;2022-12-10T14:42:19;2.40;99.90
69901;DHT22;57183;50.930;5.406;2022-12-10T14:44:51;2.40;99.90
69901;DHT22;57183;50.930;5.406;2022-12-10T14:47:21;2.60;99.90
69901;DHT22;57183;50.930;5.406;2022-12-10T14:49:50;2.50;99.90
69901;DHT22;57183;50.930;5.406;2022-12-10T14:52:19;2.50;99.90
69901;DHT22;57183;50.930;5.406;2022-12-10T14:54:49;2.50;99.90
69901;DHT22;57183;50.930;5.406;2022-12-10T14:57:30;2.50;99.90
69901;DHT22;57183;50.930;5.406;2022-12-10T15:00:13;2.60;99.90
69901;DHT22;57183;50.930;5.406;2022-12-10T15:02:46;2.70;99.90
69901;DHT22;57183;50.930;5.406;2022-12-10T15:05:21;2.70;99.90
69901;DHT22;57183;50.930;5.406;2022-12-10T15:10:26;2.70;99.90
69901;DHT22;57183;50.930;5.406;2022-12-10T15:12:55;2.80;99.90
69901;DHT22;57183;50.930;5.406;2022-12-10T15:15:31;2.90;99.90
69901;DHT22;57183;50.930;5.406;2022-12-10T15:20:37;2.70;99.90
69901;DHT22;57183;50.930;5.406;2022-12-10T15:28:35;2.60;99.90
69901;DHT22;57183;50.930;5.406;2022-12-10T15:33:54;2.60;99.90
69901;DHT22;57183;50.930;5.406;2022-12-10T15:39:19;2.50;99.90
69901;DHT22;57183;50.930;5.406;2022-12-10T15:41:51;2.70;99.90
69901;DHT22;57183;50.930;5.406;2022-12-10T15:46:48;2.80;99.90
69901;DHT22;57183;50.930;5.406;2022-12-10T15:49:14;2.80;99.90
69901;DHT22;57183;50.930;5.406;2022-12-10T15:51:41;2.70;99.90
69901;DHT22;57183;50.930;5.406;2022-12-10T15:54:34;2.70;99.90
69901;DHT22;57183;50.930;5.406;2022-12-10T15:57:14;2.80;99.90
69901;DHT22;57183;50.930;5.406;2022-12-10T15:59:41;2.70;99.90
69901;DHT22;57183;50.930;5.406;2022-12-10T16:02:37;2.70;99.90
69901;DHT22;57183;50.930;5.406;2022-12-10T16:05:22;2.80;99.90
69901;DHT22;57183;50.930;5.406;2022-12-10T16:07:50;2.70;99.90
69901;DHT22;57183;50.930;5.406;2022-12-10T16:10:22;2.80;99.90
69901;DHT22;57183;50.930;5.406;2022-12-10T16:13:00;2.90;99.90
69901;DHT22;57183;50.930;5.406;2022-12-10T16:15:29;2.90;99.90
69901;DHT22;57183;50.930;5.406;2022-12-10T16:17:55;2.90;99.90
69901;DHT22;57183;50.930;5.406;2022-12-10T16:20:29;2.80;99.90
69901;DHT22;57183;50.930;5.406;2022-12-10T16:22:56;2.80;99.90
69901;DHT22;57183;50.930;5.406;2022-12-10T16:25:28;2.80;99.90
69901;DHT22;57183;50.930;5.406;2022-12-10T16:27:55;2.70;99.90
69901;DHT22;57183;50.930;5.406;2022-12-10T16:30:35;2.90;99.90
69901;DHT22;57183;50.930;5.406;2022-12-10T16:33:03;2.90;99.90
69901;DHT22;57183;50.930;5.406;2022-12-10T16:35:32;2.80;99.90
69901;DHT22;57183;50.930;5.406;2022-12-10T16:37:58;2.90;99.90
69901;DHT22;57183;50.930;5.406;2022-12-10T16:40:26;2.80;99.90
69901;DHT22;57183;50.930;5.406;2022-12-10T16:43:04;2.60;99.90
69901;DHT22;57183;50.930;5.406;2022-12-10T16:45:36;2.50;99.90
69901;DHT22;57183;50.930;5.406;2022-12-10T16:48:03;2.30;99.90
69901;DHT22;57183;50.930;5.406;2022-12-10T16:50:33;2.20;99.90
69901;DHT22;57183;50.930;5.406;2022-12-10T16:53:06;2.00;99.90
69901;DHT22;57183;50.930;5.406;2022-12-10T16:55:36;2.00;99.90
69901;DHT22;57183;50.930;5.406;2022-12-10T16:58:02;2.00;99.90
69901;DHT22;57183;50.930;5.406;2022-12-10T17:00:27;2.30;99.90
69901;DHT22;57183;50.930;5.406;2022-12-10T17:49:34;2.10;99.90
69901;DHT22;57183;50.930;5.406;2022-12-10T20:09:51;2.70;99.90
69901;DHT22;57183;50.930;5.406;2022-12-10T20:12:36;2.70;99.90
